sensor_id;sensor_type;location;lat;lon;timestamp;P1;durP1;ratioP1;P2;durP2;ratioP2
59960;SDS011;55902;-37.980;-63.602;2022-10-24T00:02:08;3.92;;;1.40;;
59960;SDS011;55902;-37.980;-63.602;2022-10-24T00:04:35;6.10;;;1.65;;
59960;SDS011;55902;-37.980;-63.602;2022-10-24T00:07:05;4.65;;;1.60;;
59960;SDS011;55902;-37.980;-63.602;2022-10-24T00:09:33;4.05;;;1.70;;
59960;SDS011;55902;-37.980;-63.602;2022-10-24T00:12:02;2.42;;;1.60;;
59960;SDS011;55902;-37.980;-63.602;2022-10-24T00:14:31;6.68;;;1.65;;
59960;SDS011;55902;-37.980;-63.602;2022-10-24T00:17:00;4.53;;;1.50;;
59960;SDS011;55902;-37.980;-63.602;2022-10-24T00:19:27;4.00;;;1.60;;
59960;SDS011;55902;-37.980;-63.602;2022-10-24T00:21:55;3.17;;;1.52;;
59960;SDS011;55902;-37.980;-63.602;2022-10-24T00:24:23;4.15;;;1.52;;
59960;SDS011;55902;-37.980;-63.602;2022-10-24T00:27:11;3.80;;;1.70;;
59960;SDS011;55902;-37.980;-63.602;2022-10-24T00:29:38;3.30;;;1.80;;
59960;SDS011;55902;-37.980;-63.602;2022-10-24T00:32:06;3.45;;;2.00;;
59960;SDS011;55902;-37.980;-63.602;2022-10-24T00:34:33;7.43;;;1.85;;
59960;SDS011;55902;-37.980;-63.602;2022-10-24T00:37:00;6.88;;;2.70;;
59960;SDS011;55902;-37.980;-63.602;2022-10-24T00:39:28;7.95;;;2.75;;
59960;SDS011;55902;-37.980;-63.602;2022-10-24T00:41:55;10.30;;;2.38;;
59960;SDS011;55902;-37.980;-63.602;2022-10-24T00:44:30;7.00;;;2.42;;
59960;SDS011;55902;-37.980;-63.602;2022-10-24T00:47:04;4.60;;;2.00;;
59960;SDS011;55902;-37.980;-63.602;2022-10-24T00:52:14;5.15;;;2.28;;
59960;SDS011;55902;-37.980;-63.602;2022-10-24T00:54:45;4.43;;;2.10;;
59960;SDS011;55902;-37.980;-63.602;2022-10-24T00:57:21;4.38;;;2.45;;
59960;SDS011;55902;-37.980;-63.602;2022-10-24T01:00:16;4.40;;;1.92;;
59960;SDS011;55902;-37.980;-63.602;2022-10-24T01:02:46;4.95;;;1.90;;
59960;SDS011;55902;-37.980;-63.602;2022-10-24T01:05:13;5.63;;;2.00;;
59960;SDS011;55902;-37.980;-63.602;2022-10-24T01:16:48;4.47;;;1.80;;
59960;SDS011;55902;-37.980;-63.602;2022-10-24T01:22:23;2.75;;;1.70;;
59960;SDS011;55902;-37.980;-63.602;2022-10-24T01:25:12;2.05;;;1.38;;
59960;SDS011;55902;-37.980;-63.602;2022-10-24T01:27:49;2.28;;;1.60;;
59960;SDS011;55902;-37.980;-63.602;2022-10-24T01:30:26;3.90;;;1.60;;
59960;SDS011;55902;-37.980;-63.602;2022-10-24T01:35:33;3.15;;;1.60;;
59960;SDS011;55902;-37.980;-63.602;2022-10-24T01:40:57;3.47;;;1.42;;
59960;SDS011;55902;-37.980;-63.602;2022-10-24T01:46:25;4.82;;;1.65;;
59960;SDS011;55902;-37.980;-63.602;2022-10-24T01:51:28;2.60;;;1.40;;
59960;SDS011;55902;-37.980;-63.602;2022-10-24T01:53:57;3.13;;;1.52;;
59960;SDS011;55902;-37.980;-63.602;2022-10-24T01:56:25;6.10;;;1.88;;
59960;SDS011;55902;-37.980;-63.602;2022-10-24T01:59:02;4.13;;;1.63;;
59960;SDS011;55902;-37.980;-63.602;2022-10-24T02:01:33;3.67;;;1.50;;
59960;SDS011;55902;-37.980;-63.602;2022-10-24T02:04:05;3.05;;;1.50;;
59960;SDS011;55902;-37.980;-63.602;2022-10-24T02:06:36;1.92;;;1.50;;
59960;SDS011;55902;-37.980;-63.602;2022-10-24T02:09:08;3.30;;;1.50;;
59960;SDS011;55902;-37.980;-63.602;2022-10-24T02:11:39;1.92;;;1.40;;
59960;SDS011;55902;-37.980;-63.602;2022-10-24T02:14:16;3.50;;;1.50;;
59960;SDS011;55902;-37.980;-63.602;2022-10-24T02:16:53;2.03;;;1.58;;
59960;SDS011;55902;-37.980;-63.602;2022-10-24T02:19:20;2.67;;;1.40;;
59960;SDS011;55902;-37.980;-63.602;2022-10-24T02:27:00;2.13;;;1.52;;
59960;SDS011;55902;-37.980;-63.602;2022-10-24T02:32:05;2.92;;;1.40;;
59960;SDS011;55902;-37.980;-63.602;2022-10-24T02:34:38;2.42;;;1.65;;
59960;SDS011;55902;-37.980;-63.602;2022-10-24T02:37:07;2.95;;;1.60;;
59960;SDS011;55902;-37.980;-63.602;2022-10-24T02:39:36;2.63;;;1.60;;
59960;SDS011;55902;-37.980;-63.602;2022-10-24T02:42:05;2.75;;;1.50;;
59960;SDS011;55902;-37.980;-63.602;2022-10-24T02:44:33;3.38;;;1.50;;
59960;SDS011;55902;-37.980;-63.602;2022-10-24T02:47:02;2.15;;;1.50;;
59960;SDS011;55902;-37.980;-63.602;2022-10-24T02:49:31;2.67;;;1.50;;
59960;SDS011;55902;-37.980;-63.602;2022-10-24T02:51:58;2.97;;;1.50;;
59960;SDS011;55902;-37.980;-63.602;2022-10-24T02:54:26;2.08;;;1.30;;
59960;SDS011;55902;-37.980;-63.602;2022-10-24T03:07:25;2.63;;;1.60;;
59960;SDS011;55902;-37.980;-63.602;2022-10-24T03:09:52;3.38;;;1.50;;
59960;SDS011;55902;-37.980;-63.602;2022-10-24T03:12:19;1.88;;;1.40;;
59960;SDS011;55902;-37.980;-63.602;2022-10-24T03:14:47;2.20;;;1.42;;
59960;SDS011;55902;-37.980;-63.602;2022-10-24T03:17:14;2.88;;;1.52;;
59960;SDS011;55902;-37.980;-63.602;2022-10-24T03:19:41;3.38;;;1.58;;
59960;SDS011;55902;-37.980;-63.602;2022-10-24T03:22:09;2.15;;;1.63;;
59960;SDS011;55902;-37.980;-63.602;2022-10-24T03:24:36;2.58;;;1.60;;
59960;SDS011;55902;-37.980;-63.602;2022-10-24T03:37:15;2.47;;;1.60;;
59960;SDS011;55902;-37.980;-63.602;2022-10-24T03:39:42;3.22;;;1.60;;
59960;SDS011;55902;-37.980;-63.602;2022-10-24T03:42:10;2.10;;;1.52;;
59960;SDS011;55902;-37.980;-63.602;2022-10-24T03:44:37;3.40;;;1.50;;
59960;SDS011;55902;-37.980;-63.602;2022-10-24T03:47:03;3.83;;;1.55;;
59960;SDS011;55902;-37.980;-63.602;2022-10-24T03:49:30;2.35;;;1.50;;
59960;SDS011;55902;-37.980;-63.602;2022-10-24T03:51:58;2.60;;;1.50;;
59960;SDS011;55902;-37.980;-63.602;2022-10-24T03:54:25;2.42;;;1.42;;
59960;SDS011;55902;-37.980;-63.602;2022-10-24T03:56:51;1.65;;;1.45;;
59960;SDS011;55902;-37.980;-63.602;2022-10-24T03:59:18;2.47;;;1.50;;
59960;SDS011;55902;-37.980;-63.602;2022-10-24T04:01:45;2.70;;;1.50;;
59960;SDS011;55902;-37.980;-63.602;2022-10-24T04:04:12;2.75;;;1.58;;
59960;SDS011;55902;-37.980;-63.602;2022-10-24T04:06:39;2.45;;;1.60;;
59960;SDS011;55902;-37.980;-63.602;2022-10-24T04:09:10;2.20;;;1.75;;
59960;SDS011;55902;-37.980;-63.602;2022-10-24T04:11:37;3.30;;;1.70;;
59960;SDS011;55902;-37.980;-63.602;2022-10-24T04:14:03;2.17;;;1.42;;
59960;SDS011;55902;-37.980;-63.602;2022-10-24T04:16:30;4.47;;;1.60;;
59960;SDS011;55902;-37.980;-63.602;2022-10-24T04:18:59;2.28;;;1.55;;
59960;SDS011;55902;-37.980;-63.602;2022-10-24T04:21:26;2.63;;;1.60;;
59960;SDS011;55902;-37.980;-63.602;2022-10-24T04:23:53;2.03;;;1.70;;
59960;SDS011;55902;-37.980;-63.602;2022-10-24T04:26:20;2.40;;;1.70;;
59960;SDS011;55902;-37.980;-63.602;2022-10-24T04:28:47;3.03;;;1.60;;
59960;SDS011;55902;-37.980;-63.602;2022-10-24T04:31:14;2.90;;;1.80;;
59960;SDS011;55902;-37.980;-63.602;2022-10-24T04:33:41;2.10;;;1.80;;
59960;SDS011;55902;-37.980;-63.602;2022-10-24T04:36:08;2.05;;;1.80;;
59960;SDS011;55902;-37.980;-63.602;2022-10-24T04:38:35;2.28;;;1.70;;
59960;SDS011;55902;-37.980;-63.602;2022-10-24T04:41:02;3.83;;;1.90;;
59960;SDS011;55902;-37.980;-63.602;2022-10-24T04:43:29;2.30;;;1.70;;
59960;SDS011;55902;-37.980;-63.602;2022-10-24T04:45:56;3.78;;;1.73;;
59960;SDS011;55902;-37.980;-63.602;2022-10-24T04:48:23;3.55;;;1.70;;
59960;SDS011;55902;-37.980;-63.602;2022-10-24T04:50:50;1.88;;;1.67;;
59960;SDS011;55902;-37.980;-63.602;2022-10-24T04:53:17;1.98;;;1.77;;
59960;SDS011;55902;-37.980;-63.602;2022-10-24T04:55:44;2.47;;;1.60;;
59960;SDS011;55902;-37.980;-63.602;2022-10-24T04:58:11;2.60;;;1.70;;
59960;SDS011;55902;-37.980;-63.602;2022-10-24T05:00:38;3.38;;;1.75;;
59960;SDS011;55902;-37.980;-63.602;2022-10-24T05:03:07;1.98;;;1.60;;
59960;SDS011;55902;-37.980;-63.602;2022-10-24T05:05:34;4.18;;;1.77;;
59960;SDS011;55902;-37.980;-63.602;2022-10-24T05:08:01;2.40;;;1.80;;
59960;SDS011;55902;-37.980;-63.602;2022-10-24T05:10:28;1.98;;;1.70;;
59960;SDS011;55902;-37.980;-63.602;2022-10-24T05:12:55;3.30;;;2.00;;
59960;SDS011;55902;-37.980;-63.602;2022-10-24T05:15:22;4.13;;;1.80;;
59960;SDS011;55902;-37.980;-63.602;2022-10-24T05:27:53;2.30;;;1.70;;
59960;SDS011;55902;-37.980;-63.602;2022-10-24T05:30:20;3.05;;;2.00;;
59960;SDS011;55902;-37.980;-63.602;2022-10-24T05:32:47;3.08;;;1.90;;
59960;SDS011;55902;-37.980;-63.602;2022-10-24T05:35:14;2.17;;;1.90;;
59960;SDS011;55902;-37.980;-63.602;2022-10-24T05:37:41;2.20;;;2.00;;
59960;SDS011;55902;-37.980;-63.602;2022-10-24T05:40:09;3.85;;;2.00;;
59960;SDS011;55902;-37.980;-63.602;2022-10-24T05:42:36;3.88;;;2.20;;
59960;SDS011;55902;-37.980;-63.602;2022-10-24T05:45:04;3.33;;;1.90;;
59960;SDS011;55902;-37.980;-63.602;2022-10-24T05:47:32;3.45;;;1.90;;
59960;SDS011;55902;-37.980;-63.602;2022-10-24T05:50:00;2.38;;;2.00;;
59960;SDS011;55902;-37.980;-63.602;2022-10-24T05:52:28;4.20;;;2.05;;
59960;SDS011;55902;-37.980;-63.602;2022-10-24T05:54:55;4.00;;;1.95;;
59960;SDS011;55902;-37.980;-63.602;2022-10-24T05:57:22;2.28;;;1.80;;
59960;SDS011;55902;-37.980;-63.602;2022-10-24T05:59:49;3.70;;;2.00;;
59960;SDS011;55902;-37.980;-63.602;2022-10-24T06:02:17;4.03;;;2.00;;
59960;SDS011;55902;-37.980;-63.602;2022-10-24T06:04:45;2.70;;;1.95;;
59960;SDS011;55902;-37.980;-63.602;2022-10-24T06:07:12;3.08;;;2.00;;
59960;SDS011;55902;-37.980;-63.602;2022-10-24T06:09:39;2.25;;;1.90;;
59960;SDS011;55902;-37.980;-63.602;2022-10-24T06:12:09;2.65;;;2.10;;
59960;SDS011;55902;-37.980;-63.602;2022-10-24T06:14:37;3.53;;;2.10;;
59960;SDS011;55902;-37.980;-63.602;2022-10-24T06:17:04;2.78;;;1.92;;
59960;SDS011;55902;-37.980;-63.602;2022-10-24T06:19:34;2.60;;;2.17;;
59960;SDS011;55902;-37.980;-63.602;2022-10-24T06:22:01;3.53;;;2.28;;
59960;SDS011;55902;-37.980;-63.602;2022-10-24T06:24:29;2.55;;;1.98;;
59960;SDS011;55902;-37.980;-63.602;2022-10-24T06:26:56;2.42;;;1.80;;
59960;SDS011;55902;-37.980;-63.602;2022-10-24T06:29:23;2.88;;;2.05;;
59960;SDS011;55902;-37.980;-63.602;2022-10-24T06:31:50;4.78;;;2.10;;
59960;SDS011;55902;-37.980;-63.602;2022-10-24T06:34:17;3.63;;;1.90;;
59960;SDS011;55902;-37.980;-63.602;2022-10-24T06:36:43;2.28;;;2.00;;
59960;SDS011;55902;-37.980;-63.602;2022-10-24T06:42:33;3.75;;;2.05;;
59960;SDS011;55902;-37.980;-63.602;2022-10-24T06:44:59;3.53;;;2.10;;
59960;SDS011;55902;-37.980;-63.602;2022-10-24T06:47:27;3.28;;;2.10;;
59960;SDS011;55902;-37.980;-63.602;2022-10-24T06:49:54;2.42;;;2.00;;
59960;SDS011;55902;-37.980;-63.602;2022-10-24T06:52:21;2.97;;;2.10;;
59960;SDS011;55902;-37.980;-63.602;2022-10-24T06:54:47;2.97;;;2.30;;
59960;SDS011;55902;-37.980;-63.602;2022-10-24T06:57:14;3.13;;;2.05;;
59960;SDS011;55902;-37.980;-63.602;2022-10-24T06:59:42;3.80;;;2.20;;
59960;SDS011;55902;-37.980;-63.602;2022-10-24T07:02:13;2.95;;;2.15;;
59960;SDS011;55902;-37.980;-63.602;2022-10-24T07:04:41;3.50;;;2.20;;
59960;SDS011;55902;-37.980;-63.602;2022-10-24T07:07:18;4.10;;;2.30;;
59960;SDS011;55902;-37.980;-63.602;2022-10-24T07:09:56;3.30;;;2.10;;
59960;SDS011;55902;-37.980;-63.602;2022-10-24T07:12:23;2.88;;;2.10;;
59960;SDS011;55902;-37.980;-63.602;2022-10-24T07:14:50;4.43;;;2.25;;
59960;SDS011;55902;-37.980;-63.602;2022-10-24T07:17:18;3.10;;;2.20;;
59960;SDS011;55902;-37.980;-63.602;2022-10-24T07:19:50;3.22;;;2.25;;
59960;SDS011;55902;-37.980;-63.602;2022-10-24T07:22:18;2.28;;;2.08;;
59960;SDS011;55902;-37.980;-63.602;2022-10-24T07:24:45;2.97;;;2.22;;
59960;SDS011;55902;-37.980;-63.602;2022-10-24T07:27:16;2.92;;;2.20;;
59960;SDS011;55902;-37.980;-63.602;2022-10-24T07:29:43;3.47;;;2.28;;
59960;SDS011;55902;-37.980;-63.602;2022-10-24T07:32:10;2.83;;;2.15;;
59960;SDS011;55902;-37.980;-63.602;2022-10-24T07:34:37;3.17;;;2.40;;
59960;SDS011;55902;-37.980;-63.602;2022-10-24T07:37:09;3.88;;;1.90;;
59960;SDS011;55902;-37.980;-63.602;2022-10-24T07:39:35;2.40;;;2.20;;
59960;SDS011;55902;-37.980;-63.602;2022-10-24T07:42:02;4.93;;;2.00;;
59960;SDS011;55902;-37.980;-63.602;2022-10-24T07:44:29;3.03;;;2.17;;
59960;SDS011;55902;-37.980;-63.602;2022-10-24T07:46:56;4.15;;;2.10;;
59960;SDS011;55902;-37.980;-63.602;2022-10-24T07:49:23;3.30;;;2.28;;
59960;SDS011;55902;-37.980;-63.602;2022-10-24T07:51:50;3.28;;;2.20;;
59960;SDS011;55902;-37.980;-63.602;2022-10-24T07:54:17;3.38;;;2.17;;
59960;SDS011;55902;-37.980;-63.602;2022-10-24T07:56:44;3.00;;;2.00;;
59960;SDS011;55902;-37.980;-63.602;2022-10-24T07:59:11;2.75;;;2.13;;
59960;SDS011;55902;-37.980;-63.602;2022-10-24T08:01:38;2.80;;;2.22;;
59960;SDS011;55902;-37.980;-63.602;2022-10-24T08:04:04;3.38;;;2.40;;
59960;SDS011;55902;-37.980;-63.602;2022-10-24T08:06:31;2.25;;;2.03;;
59960;SDS011;55902;-37.980;-63.602;2022-10-24T08:08:58;3.70;;;2.42;;
59960;SDS011;55902;-37.980;-63.602;2022-10-24T08:11:26;2.65;;;2.30;;
59960;SDS011;55902;-37.980;-63.602;2022-10-24T08:13:54;4.90;;;2.40;;
59960;SDS011;55902;-37.980;-63.602;2022-10-24T08:16:22;3.78;;;2.38;;
59960;SDS011;55902;-37.980;-63.602;2022-10-24T08:18:50;2.58;;;2.30;;
59960;SDS011;55902;-37.980;-63.602;2022-10-24T08:21:19;2.58;;;2.38;;
59960;SDS011;55902;-37.980;-63.602;2022-10-24T08:23:48;3.17;;;2.60;;
59960;SDS011;55902;-37.980;-63.602;2022-10-24T08:26:18;4.47;;;2.50;;
59960;SDS011;55902;-37.980;-63.602;2022-10-24T08:28:46;2.95;;;2.40;;
59960;SDS011;55902;-37.980;-63.602;2022-10-24T08:31:18;4.28;;;2.53;;
59960;SDS011;55902;-37.980;-63.602;2022-10-24T08:33:46;3.08;;;2.40;;
59960;SDS011;55902;-37.980;-63.602;2022-10-24T08:36:21;2.95;;;2.50;;
59960;SDS011;55902;-37.980;-63.602;2022-10-24T08:38:48;5.13;;;2.50;;
59960;SDS011;55902;-37.980;-63.602;2022-10-24T08:41:17;3.15;;;2.40;;
59960;SDS011;55902;-37.980;-63.602;2022-10-24T08:44:28;4.38;;;2.50;;
59960;SDS011;55902;-37.980;-63.602;2022-10-24T08:50:05;3.72;;;2.70;;
59960;SDS011;55902;-37.980;-63.602;2022-10-24T08:55:46;4.85;;;2.78;;
59960;SDS011;55902;-37.980;-63.602;2022-10-24T08:58:28;3.80;;;3.40;;
59960;SDS011;55902;-37.980;-63.602;2022-10-24T09:01:01;5.90;;;2.90;;
59960;SDS011;55902;-37.980;-63.602;2022-10-24T09:03:35;5.85;;;2.90;;
59960;SDS011;55902;-37.980;-63.602;2022-10-24T09:06:19;4.70;;;2.67;;
59960;SDS011;55902;-37.980;-63.602;2022-10-24T09:14:14;4.10;;;3.00;;
59960;SDS011;55902;-37.980;-63.602;2022-10-24T09:16:44;3.20;;;2.90;;
59960;SDS011;55902;-37.980;-63.602;2022-10-24T09:19:15;3.95;;;2.88;;
59960;SDS011;55902;-37.980;-63.602;2022-10-24T09:21:45;3.03;;;2.70;;
59960;SDS011;55902;-37.980;-63.602;2022-10-24T09:31:16;4.15;;;2.83;;
59960;SDS011;55902;-37.980;-63.602;2022-10-24T09:43:56;3.90;;;2.90;;
59960;SDS011;55902;-37.980;-63.602;2022-10-24T10:10:04;3.72;;;2.92;;
59960;SDS011;55902;-37.980;-63.602;2022-10-24T10:12:56;5.10;;;3.20;;
59960;SDS011;55902;-37.980;-63.602;2022-10-24T10:18:34;3.85;;;2.90;;
59960;SDS011;55902;-37.980;-63.602;2022-10-24T10:23:37;5.28;;;2.97;;
59960;SDS011;55902;-37.980;-63.602;2022-10-24T10:28:59;6.30;;;3.10;;
59960;SDS011;55902;-37.980;-63.602;2022-10-24T10:31:53;6.68;;;3.30;;
59960;SDS011;55902;-37.980;-63.602;2022-10-24T10:38:05;5.40;;;2.78;;
59960;SDS011;55902;-37.980;-63.602;2022-10-24T10:41:01;4.53;;;2.60;;
59960;SDS011;55902;-37.980;-63.602;2022-10-24T10:46:26;3.63;;;2.65;;
59960;SDS011;55902;-37.980;-63.602;2022-10-24T10:54:44;5.43;;;2.90;;
59960;SDS011;55902;-37.980;-63.602;2022-10-24T11:06:12;3.25;;;2.60;;
59960;SDS011;55902;-37.980;-63.602;2022-10-24T11:11:21;6.90;;;2.70;;
59960;SDS011;55902;-37.980;-63.602;2022-10-24T11:13:58;6.22;;;2.45;;
59960;SDS011;55902;-37.980;-63.602;2022-10-24T11:16:32;3.28;;;2.50;;
59960;SDS011;55902;-37.980;-63.602;2022-10-24T11:19:17;4.82;;;2.45;;
59960;SDS011;55902;-37.980;-63.602;2022-10-24T11:22:05;4.20;;;2.30;;
59960;SDS011;55902;-37.980;-63.602;2022-10-24T11:24:41;4.20;;;2.60;;
59960;SDS011;55902;-37.980;-63.602;2022-10-24T11:27:18;4.28;;;2.35;;
59960;SDS011;55902;-37.980;-63.602;2022-10-24T11:30:04;3.55;;;2.20;;
59960;SDS011;55902;-37.980;-63.602;2022-10-24T11:32:46;4.28;;;2.40;;
59960;SDS011;55902;-37.980;-63.602;2022-10-24T11:35:30;4.07;;;2.47;;
59960;SDS011;55902;-37.980;-63.602;2022-10-24T11:40:44;7.18;;;1.98;;
59960;SDS011;55902;-37.980;-63.602;2022-10-24T11:43:20;3.92;;;2.10;;
59960;SDS011;55902;-37.980;-63.602;2022-10-24T11:45:59;7.75;;;2.03;;
59960;SDS011;55902;-37.980;-63.602;2022-10-24T11:51:05;2.75;;;2.08;;
59960;SDS011;55902;-37.980;-63.602;2022-10-24T11:59:03;4.03;;;1.83;;
59960;SDS011;55902;-37.980;-63.602;2022-10-24T12:18:41;4.47;;;1.70;;
59960;SDS011;55902;-37.980;-63.602;2022-10-24T12:21:19;2.63;;;1.73;;
59960;SDS011;55902;-37.980;-63.602;2022-10-24T12:23:59;4.28;;;1.63;;
59960;SDS011;55902;-37.980;-63.602;2022-10-24T12:26:28;4.15;;;1.65;;
59960;SDS011;55902;-37.980;-63.602;2022-10-24T12:29:00;5.25;;;1.77;;
59960;SDS011;55902;-37.980;-63.602;2022-10-24T12:31:35;3.38;;;1.58;;
59960;SDS011;55902;-37.980;-63.602;2022-10-24T12:39:37;3.70;;;1.45;;
59960;SDS011;55902;-37.980;-63.602;2022-10-24T12:42:16;3.67;;;1.50;;
59960;SDS011;55902;-37.980;-63.602;2022-10-24T12:47:41;3.55;;;1.45;;
59960;SDS011;55902;-37.980;-63.602;2022-10-24T13:09:40;5.50;;;1.30;;
59960;SDS011;55902;-37.980;-63.602;2022-10-24T13:19:13;8.85;;;1.70;;
59960;SDS011;55902;-37.980;-63.602;2022-10-24T13:21:52;2.58;;;1.40;;
59960;SDS011;55902;-37.980;-63.602;2022-10-24T13:42:28;2.85;;;1.20;;
59960;SDS011;55902;-37.980;-63.602;2022-10-24T13:45:00;2.08;;;1.23;;
59960;SDS011;55902;-37.980;-63.602;2022-10-24T13:47:52;6.85;;;1.40;;
59960;SDS011;55902;-37.980;-63.602;2022-10-24T13:50:29;3.17;;;1.23;;
59960;SDS011;55902;-37.980;-63.602;2022-10-24T13:53:05;2.97;;;1.30;;
59960;SDS011;55902;-37.980;-63.602;2022-10-24T13:59:52;2.63;;;1.35;;
59960;SDS011;55902;-37.980;-63.602;2022-10-24T14:02:22;3.60;;;1.10;;
59960;SDS011;55902;-37.980;-63.602;2022-10-24T14:04:51;4.13;;;1.30;;
59960;SDS011;55902;-37.980;-63.602;2022-10-24T14:07:22;2.58;;;1.38;;
59960;SDS011;55902;-37.980;-63.602;2022-10-24T14:10:06;4.15;;;1.40;;
59960;SDS011;55902;-37.980;-63.602;2022-10-24T14:16:07;2.60;;;1.20;;
59960;SDS011;55902;-37.980;-63.602;2022-10-24T14:19:22;5.70;;;1.58;;
59960;SDS011;55902;-37.980;-63.602;2022-10-24T14:24:26;4.47;;;1.67;;
59960;SDS011;55902;-37.980;-63.602;2022-10-24T14:26:55;3.22;;;1.20;;
59960;SDS011;55902;-37.980;-63.602;2022-10-24T14:29:24;4.97;;;1.40;;
59960;SDS011;55902;-37.980;-63.602;2022-10-24T14:31:55;2.00;;;1.20;;
59960;SDS011;55902;-37.980;-63.602;2022-10-24T14:34:54;3.63;;;1.25;;
59960;SDS011;55902;-37.980;-63.602;2022-10-24T14:40:15;3.10;;;1.20;;
59960;SDS011;55902;-37.980;-63.602;2022-10-24T14:42:46;3.33;;;1.30;;
59960;SDS011;55902;-37.980;-63.602;2022-10-24T14:48:20;2.50;;;1.10;;
59960;SDS011;55902;-37.980;-63.602;2022-10-24T14:50:48;2.00;;;1.15;;
59960;SDS011;55902;-37.980;-63.602;2022-10-24T14:53:23;2.42;;;1.02;;
59960;SDS011;55902;-37.980;-63.602;2022-10-24T14:55:53;5.35;;;1.27;;
59960;SDS011;55902;-37.980;-63.602;2022-10-24T14:58:28;2.13;;;1.13;;
59960;SDS011;55902;-37.980;-63.602;2022-10-24T15:00:58;4.18;;;1.10;;
59960;SDS011;55902;-37.980;-63.602;2022-10-24T15:03:27;3.05;;;1.10;;
59960;SDS011;55902;-37.980;-63.602;2022-10-24T15:06:05;4.35;;;1.15;;
59960;SDS011;55902;-37.980;-63.602;2022-10-24T15:08:59;3.05;;;1.20;;
59960;SDS011;55902;-37.980;-63.602;2022-10-24T15:11:30;2.97;;;1.20;;
59960;SDS011;55902;-37.980;-63.602;2022-10-24T15:14:02;3.15;;;1.10;;
59960;SDS011;55902;-37.980;-63.602;2022-10-24T15:25:56;2.53;;;1.10;;
59960;SDS011;55902;-37.980;-63.602;2022-10-24T15:31:21;3.75;;;1.20;;
59960;SDS011;55902;-37.980;-63.602;2022-10-24T15:34:01;4.35;;;1.20;;
59960;SDS011;55902;-37.980;-63.602;2022-10-24T15:36:32;3.88;;;1.20;;
59960;SDS011;55902;-37.980;-63.602;2022-10-24T15:39:43;4.75;;;1.13;;
59960;SDS011;55902;-37.980;-63.602;2022-10-24T15:42:10;3.00;;;1.00;;
59960;SDS011;55902;-37.980;-63.602;2022-10-24T15:44:37;3.25;;;1.10;;
59960;SDS011;55902;-37.980;-63.602;2022-10-24T15:47:05;2.60;;;0.95;;
59960;SDS011;55902;-37.980;-63.602;2022-10-24T15:49:34;3.33;;;1.10;;
59960;SDS011;55902;-37.980;-63.602;2022-10-24T15:52:04;3.78;;;1.40;;
59960;SDS011;55902;-37.980;-63.602;2022-10-24T15:54:37;2.53;;;1.15;;
59960;SDS011;55902;-37.980;-63.602;2022-10-24T15:57:08;4.28;;;1.30;;
59960;SDS011;55902;-37.980;-63.602;2022-10-24T15:59:37;2.78;;;1.20;;
59960;SDS011;55902;-37.980;-63.602;2022-10-24T16:02:04;5.22;;;1.30;;
59960;SDS011;55902;-37.980;-63.602;2022-10-24T16:04:41;2.20;;;1.20;;
59960;SDS011;55902;-37.980;-63.602;2022-10-24T16:07:09;2.50;;;1.10;;
59960;SDS011;55902;-37.980;-63.602;2022-10-24T16:09:36;4.65;;;1.30;;
59960;SDS011;55902;-37.980;-63.602;2022-10-24T16:12:03;3.38;;;1.30;;
59960;SDS011;55902;-37.980;-63.602;2022-10-24T16:24:37;3.22;;;1.20;;
59960;SDS011;55902;-37.980;-63.602;2022-10-24T16:27:04;5.15;;;1.23;;
59960;SDS011;55902;-37.980;-63.602;2022-10-24T16:29:31;2.05;;;1.10;;
59960;SDS011;55902;-37.980;-63.602;2022-10-24T16:31:58;1.90;;;1.10;;
59960;SDS011;55902;-37.980;-63.602;2022-10-24T16:34:25;4.07;;;1.10;;
59960;SDS011;55902;-37.980;-63.602;2022-10-24T16:36:52;4.20;;;1.27;;
59960;SDS011;55902;-37.980;-63.602;2022-10-24T16:39:20;3.58;;;1.27;;
59960;SDS011;55902;-37.980;-63.602;2022-10-24T16:41:51;4.32;;;1.10;;
59960;SDS011;55902;-37.980;-63.602;2022-10-24T16:44:19;3.30;;;1.17;;
59960;SDS011;55902;-37.980;-63.602;2022-10-24T16:46:46;5.22;;;1.20;;
59960;SDS011;55902;-37.980;-63.602;2022-10-24T16:49:13;4.38;;;1.33;;
59960;SDS011;55902;-37.980;-63.602;2022-10-24T16:51:41;3.40;;;1.15;;
59960;SDS011;55902;-37.980;-63.602;2022-10-24T16:54:10;4.50;;;1.33;;
59960;SDS011;55902;-37.980;-63.602;2022-10-24T16:56:37;6.18;;;1.30;;
59960;SDS011;55902;-37.980;-63.602;2022-10-24T16:59:03;4.25;;;1.30;;
59960;SDS011;55902;-37.980;-63.602;2022-10-24T17:01:30;5.00;;;1.25;;
59960;SDS011;55902;-37.980;-63.602;2022-10-24T17:03:57;4.80;;;1.33;;
59960;SDS011;55902;-37.980;-63.602;2022-10-24T17:06:25;2.92;;;1.23;;
59960;SDS011;55902;-37.980;-63.602;2022-10-24T17:08:52;4.30;;;1.30;;
59960;SDS011;55902;-37.980;-63.602;2022-10-24T17:11:19;4.32;;;1.30;;
59960;SDS011;55902;-37.980;-63.602;2022-10-24T17:13:49;2.88;;;1.05;;
59960;SDS011;55902;-37.980;-63.602;2022-10-24T17:16:16;3.47;;;1.30;;
59960;SDS011;55902;-37.980;-63.602;2022-10-24T17:18:45;3.30;;;1.20;;
59960;SDS011;55902;-37.980;-63.602;2022-10-24T17:21:12;3.83;;;1.20;;
59960;SDS011;55902;-37.980;-63.602;2022-10-24T17:23:41;2.40;;;1.20;;
59960;SDS011;55902;-37.980;-63.602;2022-10-24T17:26:14;2.78;;;1.05;;
59960;SDS011;55902;-37.980;-63.602;2022-10-24T17:28:41;2.17;;;1.00;;
59960;SDS011;55902;-37.980;-63.602;2022-10-24T17:31:12;6.50;;;1.30;;
59960;SDS011;55902;-37.980;-63.602;2022-10-24T17:33:40;2.97;;;1.17;;
59960;SDS011;55902;-37.980;-63.602;2022-10-24T17:36:14;2.78;;;1.23;;
59960;SDS011;55902;-37.980;-63.602;2022-10-24T17:41:24;4.50;;;1.30;;
59960;SDS011;55902;-37.980;-63.602;2022-10-24T17:43:58;2.92;;;0.90;;
59960;SDS011;55902;-37.980;-63.602;2022-10-24T17:46:26;2.90;;;1.00;;
59960;SDS011;55902;-37.980;-63.602;2022-10-24T17:48:53;3.42;;;1.30;;
59960;SDS011;55902;-37.980;-63.602;2022-10-24T17:51:22;3.20;;;1.30;;
59960;SDS011;55902;-37.980;-63.602;2022-10-24T17:53:51;5.75;;;1.60;;
59960;SDS011;55902;-37.980;-63.602;2022-10-24T17:56:21;4.22;;;1.55;;
59960;SDS011;55902;-37.980;-63.602;2022-10-24T17:58:48;3.17;;;1.17;;
59960;SDS011;55902;-37.980;-63.602;2022-10-24T18:01:15;1.65;;;0.93;;
59960;SDS011;55902;-37.980;-63.602;2022-10-24T18:03:42;1.88;;;1.00;;
59960;SDS011;55902;-37.980;-63.602;2022-10-24T18:06:09;4.35;;;1.10;;
59960;SDS011;55902;-37.980;-63.602;2022-10-24T18:08:37;2.78;;;1.20;;
59960;SDS011;55902;-37.980;-63.602;2022-10-24T18:11:04;3.85;;;1.00;;
59960;SDS011;55902;-37.980;-63.602;2022-10-24T18:13:36;3.53;;;1.10;;
59960;SDS011;55902;-37.980;-63.602;2022-10-24T18:16:11;2.00;;;1.00;;
59960;SDS011;55902;-37.980;-63.602;2022-10-24T18:18:39;4.63;;;1.30;;
59960;SDS011;55902;-37.980;-63.602;2022-10-24T18:21:08;3.03;;;1.10;;
59960;SDS011;55902;-37.980;-63.602;2022-10-24T18:23:36;3.67;;;1.20;;
59960;SDS011;55902;-37.980;-63.602;2022-10-24T18:26:14;4.28;;;1.27;;
59960;SDS011;55902;-37.980;-63.602;2022-10-24T18:28:47;5.75;;;1.40;;
59960;SDS011;55902;-37.980;-63.602;2022-10-24T18:31:16;5.93;;;1.10;;
59960;SDS011;55902;-37.980;-63.602;2022-10-24T18:33:44;4.47;;;1.15;;
59960;SDS011;55902;-37.980;-63.602;2022-10-24T18:36:14;3.38;;;1.10;;
59960;SDS011;55902;-37.980;-63.602;2022-10-24T18:38:43;3.83;;;1.20;;
59960;SDS011;55902;-37.980;-63.602;2022-10-24T18:43:57;3.45;;;1.08;;
59960;SDS011;55902;-37.980;-63.602;2022-10-24T18:46:25;3.92;;;1.10;;
59960;SDS011;55902;-37.980;-63.602;2022-10-24T18:48:53;2.72;;;1.20;;
59960;SDS011;55902;-37.980;-63.602;2022-10-24T18:51:34;3.05;;;1.08;;
59960;SDS011;55902;-37.980;-63.602;2022-10-24T18:54:09;3.05;;;1.20;;
59960;SDS011;55902;-37.980;-63.602;2022-10-24T18:56:41;2.63;;;1.08;;
59960;SDS011;55902;-37.980;-63.602;2022-10-24T18:59:11;6.63;;;1.20;;
59960;SDS011;55902;-37.980;-63.602;2022-10-24T19:04:51;2.83;;;1.00;;
59960;SDS011;55902;-37.980;-63.602;2022-10-24T19:07:43;5.40;;;1.00;;
59960;SDS011;55902;-37.980;-63.602;2022-10-24T19:10:24;2.30;;;1.17;;